sensor_id;sensor_type;location;lat;lon;timestamp;pressure;altitude;pressure_sealevel;temperature;humidity
23318;BME280;11831;55.918;37.746;2023-02-04T00:01:32;98764.88;;;3.02;0.00
23318;BME280;11831;55.918;37.746;2023-02-04T00:03:59;98762.75;;;3.19;0.00
23318;BME280;11831;55.918;37.746;2023-02-04T00:06:25;98763.91;;;3.58;0.00
23318;BME280;11831;55.918;37.746;2023-02-04T00:08:52;98766.34;;;3.59;0.00
23318;BME280;11831;55.918;37.746;2023-02-04T00:11:18;98764.78;;;3.85;0.00
23318;BME280;11831;55.918;37.746;2023-02-04T00:13:45;98767.59;;;3.09;0.00
23318;BME280;11831;55.918;37.746;2023-02-04T00:16:11;98769.88;;;3.25;0.00
23318;BME280;11831;55.918;37.746;2023-02-04T00:18:38;98772.75;;;3.30;0.00
23318;BME280;11831;55.918;37.746;2023-02-04T00:21:04;98777.19;;;3.23;0.00
23318;BME280;11831;55.918;37.746;2023-02-04T00:23:30;98771.31;;;3.28;0.00
23318;BME280;11831;55.918;37.746;2023-02-04T00:25:57;98764.03;;;3.36;0.00
23318;BME280;11831;55.918;37.746;2023-02-04T00:28:23;98770.16;;;3.02;0.00
23318;BME280;11831;55.918;37.746;2023-02-04T00:30:50;98781.53;;;2.96;0.00
23318;BME280;11831;55.918;37.746;2023-02-04T00:33:16;98781.84;;;3.15;0.00
23318;BME280;11831;55.918;37.746;2023-02-04T00:35:42;98782.25;;;3.18;0.00
23318;BME280;11831;55.918;37.746;2023-02-04T00:38:09;98785.72;;;3.25;0.00
23318;BME280;11831;55.918;37.746;2023-02-04T00:40:35;98789.72;;;3.08;0.00
23318;BME280;11831;55.918;37.746;2023-02-04T00:43:02;98778.53;;;3.60;0.00
23318;BME280;11831;55.918;37.746;2023-02-04T00:45:29;98795.97;;;3.41;0.00
23318;BME280;11831;55.918;37.746;2023-02-04T00:47:55;98794.34;;;3.40;0.00
23318;BME280;11831;55.918;37.746;2023-02-04T00:50:22;98785.66;;;3.60;0.00
23318;BME280;11831;55.918;37.746;2023-02-04T00:52:49;98794.69;;;3.31;0.00
23318;BME280;11831;55.918;37.746;2023-02-04T00:55:17;98800.75;;;3.72;0.00
23318;BME280;11831;55.918;37.746;2023-02-04T00:57:44;98797.37;;;4.05;0.00
23318;BME280;11831;55.918;37.746;2023-02-04T01:00:15;98792.44;;;3.28;0.00
23318;BME280;11831;55.918;37.746;2023-02-04T01:02:41;98793.06;;;3.30;0.00
23318;BME280;11831;55.918;37.746;2023-02-04T01:05:08;98796.63;;;3.50;0.00
23318;BME280;11831;55.918;37.746;2023-02-04T01:07:35;98797.50;;;3.70;0.00
23318;BME280;11831;55.918;37.746;2023-02-04T01:10:03;98807.31;;;3.35;0.00
23318;BME280;11831;55.918;37.746;2023-02-04T01:12:29;98806.41;;;3.08;0.00
23318;BME280;11831;55.918;37.746;2023-02-04T01:14:56;98802.63;;;2.90;0.00
23318;BME280;11831;55.918;37.746;2023-02-04T01:17:22;98808.91;;;3.23;0.00
23318;BME280;11831;55.918;37.746;2023-02-04T01:19:48;98805.31;;;3.37;0.00
23318;BME280;11831;55.918;37.746;2023-02-04T01:22:15;98806.81;;;3.66;0.00
23318;BME280;11831;55.918;37.746;2023-02-04T01:24:41;98806.88;;;3.80;0.00
23318;BME280;11831;55.918;37.746;2023-02-04T01:27:29;98812.44;;;4.04;0.00
23318;BME280;11831;55.918;37.746;2023-02-04T01:29:55;98811.41;;;4.05;0.00
23318;BME280;11831;55.918;37.746;2023-02-04T01:32:21;98812.69;;;4.62;0.00
23318;BME280;11831;55.918;37.746;2023-02-04T01:34:48;98815.72;;;4.66;0.00
23318;BME280;11831;55.918;37.746;2023-02-04T01:37:14;98815.91;;;4.84;0.00
23318;BME280;11831;55.918;37.746;2023-02-04T01:39:41;98814.69;;;4.93;0.00
23318;BME280;11831;55.918;37.746;2023-02-04T01:42:07;98810.97;;;5.08;0.00
23318;BME280;11831;55.918;37.746;2023-02-04T01:44:34;98811.16;;;5.13;0.00
23318;BME280;11831;55.918;37.746;2023-02-04T01:47:00;98821.28;;;5.36;0.00
23318;BME280;11831;55.918;37.746;2023-02-04T01:49:27;98826.34;;;5.44;0.00
23318;BME280;11831;55.918;37.746;2023-02-04T01:51:54;98822.75;;;5.18;0.00
23318;BME280;11831;55.918;37.746;2023-02-04T01:54:20;98827.78;;;5.46;0.00
23318;BME280;11831;55.918;37.746;2023-02-04T01:56:47;98830.00;;;5.56;0.00
23318;BME280;11831;55.918;37.746;2023-02-04T01:59:17;98836.94;;;5.57;0.00
23318;BME280;11831;55.918;37.746;2023-02-04T02:01:49;98836.75;;;5.52;0.00
23318;BME280;11831;55.918;37.746;2023-02-04T02:04:29;98849.38;;;5.56;0.00
23318;BME280;11831;55.918;37.746;2023-02-04T02:06:59;98841.84;;;5.47;0.00
23318;BME280;11831;55.918;37.746;2023-02-04T02:09:29;98840.84;;;5.41;0.00
23318;BME280;11831;55.918;37.746;2023-02-04T02:11:56;98848.09;;;5.66;0.00
23318;BME280;11831;55.918;37.746;2023-02-04T02:14:23;98849.13;;;5.65;0.00
23318;BME280;11831;55.918;37.746;2023-02-04T02:16:49;98856.25;;;5.71;0.00
23318;BME280;11831;55.918;37.746;2023-02-04T02:19:22;98856.19;;;5.13;0.00
23318;BME280;11831;55.918;37.746;2023-02-04T02:22:00;98853.91;;;5.36;0.00
23318;BME280;11831;55.918;37.746;2023-02-04T02:24:30;98853.88;;;5.49;0.00
23318;BME280;11831;55.918;37.746;2023-02-04T02:27:00;98856.34;;;5.38;0.00
23318;BME280;11831;55.918;37.746;2023-02-04T02:29:27;98853.62;;;5.64;0.00
23318;BME280;11831;55.918;37.746;2023-02-04T02:31:55;98856.81;;;5.28;0.00
23318;BME280;11831;55.918;37.746;2023-02-04T02:34:28;98865.50;;;5.55;0.00
23318;BME280;11831;55.918;37.746;2023-02-04T02:36:56;98866.94;;;5.44;0.00
23318;BME280;11831;55.918;37.746;2023-02-04T02:39:23;98866.13;;;5.44;0.00
23318;BME280;11831;55.918;37.746;2023-02-04T02:41:50;98866.53;;;5.41;0.00
23318;BME280;11831;55.918;37.746;2023-02-04T02:44:17;98873.97;;;4.92;0.00
23318;BME280;11831;55.918;37.746;2023-02-04T02:46:44;98870.09;;;5.02;0.00
23318;BME280;11831;55.918;37.746;2023-02-04T02:49:20;98877.44;;;4.86;0.00
23318;BME280;11831;55.918;37.746;2023-02-04T02:51:47;98882.75;;;4.66;0.00
23318;BME280;11831;55.918;37.746;2023-02-04T02:54:28;98884.16;;;4.62;0.00
23318;BME280;11831;55.918;37.746;2023-02-04T02:56:55;98891.28;;;4.68;0.00
23318;BME280;11831;55.918;37.746;2023-02-04T02:59:22;98894.31;;;4.52;0.00
23318;BME280;11831;55.918;37.746;2023-02-04T03:01:53;98892.22;;;4.08;0.00
23318;BME280;11831;55.918;37.746;2023-02-04T03:04:20;98890.59;;;4.20;0.00
23318;BME280;11831;55.918;37.746;2023-02-04T03:06:48;98895.75;;;4.35;0.00
23318;BME280;11831;55.918;37.746;2023-02-04T03:09:15;98898.34;;;4.28;0.00
23318;BME280;11831;55.918;37.746;2023-02-04T03:11:42;98892.81;;;4.03;0.00
23318;BME280;11831;55.918;37.746;2023-02-04T03:14:08;98898.19;;;4.30;0.00
23318;BME280;11831;55.918;37.746;2023-02-04T03:16:35;98897.94;;;3.64;0.00
23318;BME280;11831;55.918;37.746;2023-02-04T03:19:04;98897.44;;;3.88;0.00
23318;BME280;11831;55.918;37.746;2023-02-04T03:21:32;98896.87;;;3.99;0.00
23318;BME280;11831;55.918;37.746;2023-02-04T03:23:59;98905.56;;;3.87;0.00
23318;BME280;11831;55.918;37.746;2023-02-04T03:26:26;98913.56;;;4.07;0.00
23318;BME280;11831;55.918;37.746;2023-02-04T03:28:53;98912.09;;;3.97;0.00
23318;BME280;11831;55.918;37.746;2023-02-04T03:31:19;98907.91;;;4.16;0.00
23318;BME280;11831;55.918;37.746;2023-02-04T03:33:46;98913.72;;;4.59;0.00
23318;BME280;11831;55.918;37.746;2023-02-04T03:36:12;98912.69;;;4.60;0.00
23318;BME280;11831;55.918;37.746;2023-02-04T03:38:39;98919.37;;;4.50;0.00
23318;BME280;11831;55.918;37.746;2023-02-04T03:41:06;98908.53;;;4.25;0.00
23318;BME280;11831;55.918;37.746;2023-02-04T03:43:32;98923.50;;;3.98;0.00
23318;BME280;11831;55.918;37.746;2023-02-04T03:45:59;98929.66;;;4.05;0.00
23318;BME280;11831;55.918;37.746;2023-02-04T03:48:25;98918.94;;;3.72;0.00
23318;BME280;11831;55.918;37.746;2023-02-04T03:50:51;98923.31;;;3.58;0.00
23318;BME280;11831;55.918;37.746;2023-02-04T03:53:18;98930.06;;;4.09;0.00
23318;BME280;11831;55.918;37.746;2023-02-04T03:55:44;98923.41;;;3.71;0.00
23318;BME280;11831;55.918;37.746;2023-02-04T03:58:10;98927.81;;;3.64;0.00
23318;BME280;11831;55.918;37.746;2023-02-04T04:00:37;98927.72;;;3.86;0.00
23318;BME280;11831;55.918;37.746;2023-02-04T04:03:03;98931.72;;;3.68;0.00
23318;BME280;11831;55.918;37.746;2023-02-04T04:05:29;98943.53;;;4.27;0.00
23318;BME280;11831;55.918;37.746;2023-02-04T04:07:56;98941.37;;;3.89;0.00
23318;BME280;11831;55.918;37.746;2023-02-04T04:10:22;98942.09;;;4.24;0.00
23318;BME280;11831;55.918;37.746;2023-02-04T04:12:49;98942.56;;;4.34;0.00
23318;BME280;11831;55.918;37.746;2023-02-04T04:15:16;98962.22;;;4.12;0.00
23318;BME280;11831;55.918;37.746;2023-02-04T04:17:42;98952.97;;;4.43;0.00
23318;BME280;11831;55.918;37.746;2023-02-04T04:20:09;98947.47;;;3.83;0.00
23318;BME280;11831;55.918;37.746;2023-02-04T04:22:36;98957.78;;;4.26;0.00
23318;BME280;11831;55.918;37.746;2023-02-04T04:25:02;98961.09;;;4.41;0.00
23318;BME280;11831;55.918;37.746;2023-02-04T04:27:30;98956.63;;;4.35;0.00
23318;BME280;11831;55.918;37.746;2023-02-04T04:29:56;98956.97;;;4.25;0.00
23318;BME280;11831;55.918;37.746;2023-02-04T04:32:23;98965.50;;;4.21;0.00
23318;BME280;11831;55.918;37.746;2023-02-04T04:34:49;98965.19;;;3.89;0.00
23318;BME280;11831;55.918;37.746;2023-02-04T04:37:15;98959.41;;;4.20;0.00
23318;BME280;11831;55.918;37.746;2023-02-04T04:39:42;98959.06;;;4.43;0.00
23318;BME280;11831;55.918;37.746;2023-02-04T04:42:08;98968.50;;;4.72;0.00
23318;BME280;11831;55.918;37.746;2023-02-04T04:44:34;98970.91;;;4.54;0.00
23318;BME280;11831;55.918;37.746;2023-02-04T04:47:01;98967.22;;;4.48;0.00
23318;BME280;11831;55.918;37.746;2023-02-04T04:49:28;98976.97;;;4.34;0.00
23318;BME280;11831;55.918;37.746;2023-02-04T04:51:54;98977.28;;;4.86;0.00
23318;BME280;11831;55.918;37.746;2023-02-04T04:54:20;98972.19;;;4.78;0.00
23318;BME280;11831;55.918;37.746;2023-02-04T04:56:47;98983.38;;;4.66;0.00
23318;BME280;11831;55.918;37.746;2023-02-04T04:59:13;98986.84;;;4.87;0.00
23318;BME280;11831;55.918;37.746;2023-02-04T05:01:39;98987.91;;;4.92;0.00
23318;BME280;11831;55.918;37.746;2023-02-04T05:04:06;98981.19;;;4.90;0.00
23318;BME280;11831;55.918;37.746;2023-02-04T05:06:32;98990.75;;;4.97;0.00
23318;BME280;11831;55.918;37.746;2023-02-04T05:08:59;98992.53;;;4.71;0.00
23318;BME280;11831;55.918;37.746;2023-02-04T05:11:25;98998.78;;;4.50;0.00
23318;BME280;11831;55.918;37.746;2023-02-04T05:13:51;99000.59;;;4.36;0.00
23318;BME280;11831;55.918;37.746;2023-02-04T05:16:18;98999.28;;;4.86;0.00
23318;BME280;11831;55.918;37.746;2023-02-04T05:18:44;99005.94;;;4.56;0.00
23318;BME280;11831;55.918;37.746;2023-02-04T05:21:11;99008.59;;;4.56;0.00
23318;BME280;11831;55.918;37.746;2023-02-04T05:23:37;99014.56;;;4.71;0.00
23318;BME280;11831;55.918;37.746;2023-02-04T05:26:04;99017.59;;;4.61;0.00
23318;BME280;11831;55.918;37.746;2023-02-04T05:28:30;99017.00;;;4.79;0.00
23318;BME280;11831;55.918;37.746;2023-02-04T05:30:56;99010.22;;;4.57;0.00
23318;BME280;11831;55.918;37.746;2023-02-04T05:33:23;99018.63;;;4.74;0.00
23318;BME280;11831;55.918;37.746;2023-02-04T05:35:49;99021.09;;;4.88;0.00
23318;BME280;11831;55.918;37.746;2023-02-04T05:38:15;99026.69;;;4.46;0.00
23318;BME280;11831;55.918;37.746;2023-02-04T05:40:42;99033.50;;;4.75;0.00
23318;BME280;11831;55.918;37.746;2023-02-04T05:43:08;99032.87;;;4.73;0.00
23318;BME280;11831;55.918;37.746;2023-02-04T05:45:35;99027.00;;;4.23;0.00
23318;BME280;11831;55.918;37.746;2023-02-04T05:48:01;99027.94;;;4.56;0.00
23318;BME280;11831;55.918;37.746;2023-02-04T05:50:27;99031.69;;;4.82;0.00
23318;BME280;11831;55.918;37.746;2023-02-04T05:53:07;99033.16;;;4.91;0.00
23318;BME280;11831;55.918;37.746;2023-02-04T05:55:34;99036.47;;;4.45;0.00
23318;BME280;11831;55.918;37.746;2023-02-04T05:58:01;99032.91;;;3.84;0.00
23318;BME280;11831;55.918;37.746;2023-02-04T06:00:27;99041.16;;;3.67;0.00
23318;BME280;11831;55.918;37.746;2023-02-04T06:02:53;99050.66;;;3.62;0.00
23318;BME280;11831;55.918;37.746;2023-02-04T06:05:20;99045.03;;;3.71;0.00
23318;BME280;11831;55.918;37.746;2023-02-04T06:07:48;99051.41;;;3.28;0.00
23318;BME280;11831;55.918;37.746;2023-02-04T06:10:15;99056.94;;;3.33;0.00
23318;BME280;11831;55.918;37.746;2023-02-04T06:12:41;99061.66;;;3.37;0.00
23318;BME280;11831;55.918;37.746;2023-02-04T06:15:08;99070.91;;;3.48;0.00
23318;BME280;11831;55.918;37.746;2023-02-04T06:17:35;99064.69;;;3.90;0.00
23318;BME280;11831;55.918;37.746;2023-02-04T06:20:02;99082.47;;;4.03;0.00
23318;BME280;11831;55.918;37.746;2023-02-04T06:22:30;99086.66;;;3.63;0.00
23318;BME280;11831;55.918;37.746;2023-02-04T06:24:56;99087.63;;;4.18;0.00
23318;BME280;11831;55.918;37.746;2023-02-04T06:27:23;99090.34;;;3.96;0.00
23318;BME280;11831;55.918;37.746;2023-02-04T06:29:50;99094.72;;;4.45;0.00
23318;BME280;11831;55.918;37.746;2023-02-04T06:32:17;99104.28;;;4.46;0.00
23318;BME280;11831;55.918;37.746;2023-02-04T06:34:44;99099.44;;;4.56;0.00
23318;BME280;11831;55.918;37.746;2023-02-04T06:37:11;99100.75;;;4.32;0.00
23318;BME280;11831;55.918;37.746;2023-02-04T06:39:38;99106.31;;;4.10;0.00
23318;BME280;11831;55.918;37.746;2023-02-04T06:42:04;99107.00;;;3.90;0.00
23318;BME280;11831;55.918;37.746;2023-02-04T06:44:31;99102.94;;;3.94;0.00
23318;BME280;11831;55.918;37.746;2023-02-04T06:46:57;99110.09;;;3.23;0.00
23318;BME280;11831;55.918;37.746;2023-02-04T06:49:23;99115.59;;;2.86;0.00
23318;BME280;11831;55.918;37.746;2023-02-04T06:51:50;99125.03;;;2.59;0.00
23318;BME280;11831;55.918;37.746;2023-02-04T06:54:17;99122.38;;;2.44;0.00
23318;BME280;11831;55.918;37.746;2023-02-04T06:56:43;99127.13;;;2.63;0.00
23318;BME280;11831;55.918;37.746;2023-02-04T06:59:10;99122.00;;;2.76;0.00
23318;BME280;11831;55.918;37.746;2023-02-04T07:01:36;99128.06;;;2.92;0.00
23318;BME280;11831;55.918;37.746;2023-02-04T07:04:03;99128.62;;;2.87;0.00
23318;BME280;11831;55.918;37.746;2023-02-04T07:06:29;99131.84;;;3.04;0.00
23318;BME280;11831;55.918;37.746;2023-02-04T07:08:55;99135.59;;;3.09;0.00
23318;BME280;11831;55.918;37.746;2023-02-04T07:11:22;99139.13;;;2.80;0.00
23318;BME280;11831;55.918;37.746;2023-02-04T07:13:48;99143.16;;;2.98;0.00
23318;BME280;11831;55.918;37.746;2023-02-04T07:16:14;99146.09;;;2.88;0.00
23318;BME280;11831;55.918;37.746;2023-02-04T07:18:41;99139.53;;;3.20;0.00
23318;BME280;11831;55.918;37.746;2023-02-04T07:21:07;99146.78;;;3.11;0.00
23318;BME280;11831;55.918;37.746;2023-02-04T07:23:33;99141.56;;;3.18;0.00
23318;BME280;11831;55.918;37.746;2023-02-04T07:26:00;99149.31;;;3.05;0.00
23318;BME280;11831;55.918;37.746;2023-02-04T07:28:26;99152.00;;;3.26;0.00
23318;BME280;11831;55.918;37.746;2023-02-04T07:30:53;99151.16;;;3.40;0.00
23318;BME280;11831;55.918;37.746;2023-02-04T07:33:19;99152.69;;;3.56;0.00
23318;BME280;11831;55.918;37.746;2023-02-04T07:35:45;99158.41;;;3.17;0.00
23318;BME280;11831;55.918;37.746;2023-02-04T07:38:12;99157.09;;;3.06;0.00
23318;BME280;11831;55.918;37.746;2023-02-04T07:40:38;99165.97;;;3.20;0.00
23318;BME280;11831;55.918;37.746;2023-02-04T07:43:05;99169.50;;;3.27;0.00
23318;BME280;11831;55.918;37.746;2023-02-04T07:45:31;99169.19;;;3.37;0.00
23318;BME280;11831;55.918;37.746;2023-02-04T07:47:58;99170.25;;;3.21;0.00
23318;BME280;11831;55.918;37.746;2023-02-04T07:50:24;99167.47;;;3.29;0.00
23318;BME280;11831;55.918;37.746;2023-02-04T07:52:50;99172.63;;;3.16;0.00
23318;BME280;11831;55.918;37.746;2023-02-04T07:55:17;99180.50;;;3.09;0.00
23318;BME280;11831;55.918;37.746;2023-02-04T07:57:44;99171.63;;;3.17;0.00
23318;BME280;11831;55.918;37.746;2023-02-04T08:00:10;99183.09;;;3.46;0.00
23318;BME280;11831;55.918;37.746;2023-02-04T08:02:39;99183.34;;;3.51;0.00
23318;BME280;11831;55.918;37.746;2023-02-04T08:05:07;99187.22;;;3.69;0.00
23318;BME280;11831;55.918;37.746;2023-02-04T08:07:34;99192.75;;;3.74;0.00
23318;BME280;11831;55.918;37.746;2023-02-04T08:10:02;99192.56;;;3.76;0.00
23318;BME280;11831;55.918;37.746;2023-02-04T08:12:29;99187.50;;;4.02;0.00
23318;BME280;11831;55.918;37.746;2023-02-04T08:14:55;99188.22;;;3.96;0.00
23318;BME280;11831;55.918;37.746;2023-02-04T08:17:22;99184.84;;;3.60;0.00
23318;BME280;11831;55.918;37.746;2023-02-04T08:19:48;99191.66;;;3.48;0.00
23318;BME280;11831;55.918;37.746;2023-02-04T08:22:15;99194.75;;;3.51;0.00
23318;BME280;11831;55.918;37.746;2023-02-04T08:24:41;99196.84;;;3.20;0.00
23318;BME280;11831;55.918;37.746;2023-02-04T08:27:07;99196.38;;;3.52;0.00
23318;BME280;11831;55.918;37.746;2023-02-04T08:29:34;99199.09;;;3.59;0.00
23318;BME280;11831;55.918;37.746;2023-02-04T08:32:00;99206.84;;;3.60;0.00
23318;BME280;11831;55.918;37.746;2023-02-04T08:34:27;99202.25;;;3.69;0.00
23318;BME280;11831;55.918;37.746;2023-02-04T08:36:53;99207.31;;;3.92;0.00
23318;BME280;11831;55.918;37.746;2023-02-04T08:39:19;99197.25;;;4.02;0.00
23318;BME280;11831;55.918;37.746;2023-02-04T08:41:46;99211.56;;;3.86;0.00
23318;BME280;11831;55.918;37.746;2023-02-04T08:44:14;99207.97;;;4.22;0.00
23318;BME280;11831;55.918;37.746;2023-02-04T08:46:41;99203.63;;;4.42;0.00
23318;BME280;11831;55.918;37.746;2023-02-04T08:49:07;99207.72;;;4.45;0.00
23318;BME280;11831;55.918;37.746;2023-02-04T08:51:33;99215.00;;;4.36;0.00
23318;BME280;11831;55.918;37.746;2023-02-04T08:54:00;99210.41;;;4.86;0.00
23318;BME280;11831;55.918;37.746;2023-02-04T08:56:26;99216.06;;;4.76;0.00
23318;BME280;11831;55.918;37.746;2023-02-04T08:58:52;99210.94;;;4.68;0.00
23318;BME280;11831;55.918;37.746;2023-02-04T09:01:19;99213.09;;;4.92;0.00
23318;BME280;11831;55.918;37.746;2023-02-04T09:03:45;99218.91;;;3.91;0.00
23318;BME280;11831;55.918;37.746;2023-02-04T09:06:12;99223.41;;;4.81;0.00
23318;BME280;11831;55.918;37.746;2023-02-04T09:08:38;99215.59;;;5.07;0.00
23318;BME280;11831;55.918;37.746;2023-02-04T09:11:05;99220.94;;;4.73;0.00
23318;BME280;11831;55.918;37.746;2023-02-04T09:13:31;99224.50;;;4.58;0.00
23318;BME280;11831;55.918;37.746;2023-02-04T09:15:58;99227.91;;;4.80;0.00
23318;BME280;11831;55.918;37.746;2023-02-04T09:18:25;99230.75;;;4.79;0.00
23318;BME280;11831;55.918;37.746;2023-02-04T09:20:51;99227.44;;;4.35;0.00
23318;BME280;11831;55.918;37.746;2023-02-04T09:23:18;99232.78;;;4.77;0.00
23318;BME280;11831;55.918;37.746;2023-02-04T09:25:45;99228.53;;;4.89;0.00
23318;BME280;11831;55.918;37.746;2023-02-04T09:28:12;99229.19;;;4.91;0.00
23318;BME280;11831;55.918;37.746;2023-02-04T09:30:40;99233.56;;;5.18;0.00
23318;BME280;11831;55.918;37.746;2023-02-04T09:33:08;99235.56;;;5.03;0.00
23318;BME280;11831;55.918;37.746;2023-02-04T09:35:35;99233.84;;;4.89;0.00
23318;BME280;11831;55.918;37.746;2023-02-04T09:38:02;99244.16;;;4.71;0.00
23318;BME280;11831;55.918;37.746;2023-02-04T09:40:31;99237.56;;;4.94;0.00
23318;BME280;11831;55.918;37.746;2023-02-04T09:42:59;99249.25;;;5.13;0.00
23318;BME280;11831;55.918;37.746;2023-02-04T09:45:31;99250.59;;;5.44;0.00
23318;BME280;11831;55.918;37.746;2023-02-04T09:48:00;99246.06;;;5.24;0.00
23318;BME280;11831;55.918;37.746;2023-02-04T09:50:29;99253.22;;;5.30;0.00
23318;BME280;11831;55.918;37.746;2023-02-04T09:53:05;99252.91;;;5.53;0.00
23318;BME280;11831;55.918;37.746;2023-02-04T09:55:36;99262.69;;;5.05;0.00
23318;BME280;11831;55.918;37.746;2023-02-04T09:58:31;99266.06;;;5.27;0.00
23318;BME280;11831;55.918;37.746;2023-02-04T10:01:08;99260.69;;;5.14;0.00
23318;BME280;11831;55.918;37.746;2023-02-04T10:03:38;99263.69;;;5.04;0.00
23318;BME280;11831;55.918;37.746;2023-02-04T10:06:19;99261.56;;;5.27;0.00
23318;BME280;11831;55.918;37.746;2023-02-04T10:08:47;99264.13;;;5.08;0.00
23318;BME280;11831;55.918;37.746;2023-02-04T10:11:15;99265.84;;;5.22;0.00
23318;BME280;11831;55.918;37.746;2023-02-04T10:13:45;99273.59;;;5.30;0.00
23318;BME280;11831;55.918;37.746;2023-02-04T10:16:14;99274.06;;;4.99;0.00
23318;BME280;11831;55.918;37.746;2023-02-04T10:18:42;99269.53;;;5.27;0.00
23318;BME280;11831;55.918;37.746;2023-02-04T10:23:42;99279.94;;;5.29;0.00
23318;BME280;11831;55.918;37.746;2023-02-04T10:26:11;99284.97;;;5.78;0.00
23318;BME280;11831;55.918;37.746;2023-02-04T10:28:38;99280.69;;;5.77;0.00
23318;BME280;11831;55.918;37.746;2023-02-04T10:31:32;99292.56;;;5.88;0.00
23318;BME280;11831;55.918;37.746;2023-02-04T10:34:06;99290.16;;;5.45;0.00
23318;BME280;11831;55.918;37.746;2023-02-04T10:36:33;99293.63;;;6.07;0.00
23318;BME280;11831;55.918;37.746;2023-02-04T10:39:14;99283.94;;;5.73;0.00
23318;BME280;11831;55.918;37.746;2023-02-04T10:41:46;99288.53;;;5.99;0.00
23318;BME280;11831;55.918;37.746;2023-02-04T10:44:14;99293.38;;;5.82;0.00
23318;BME280;11831;55.918;37.746;2023-02-04T10:46:40;99291.38;;;6.10;0.00
23318;BME280;11831;55.918;37.746;2023-02-04T10:49:21;99306.38;;;5.70;0.00
23318;BME280;11831;55.918;37.746;2023-02-04T10:51:49;99297.97;;;5.53;0.00
23318;BME280;11831;55.918;37.746;2023-02-04T10:54:18;99292.78;;;5.32;0.00
23318;BME280;11831;55.918;37.746;2023-02-04T10:59:45;99305.22;;;5.32;0.00
23318;BME280;11831;55.918;37.746;2023-02-04T11:05:00;99310.94;;;5.35;0.00
23318;BME280;11831;55.918;37.746;2023-02-04T11:07:28;99311.97;;;5.34;0.00
23318;BME280;11831;55.918;37.746;2023-02-04T11:09:55;99302.16;;;5.28;0.00
23318;BME280;11831;55.918;37.746;2023-02-04T11:12:41;99311.66;;;5.57;0.00
23318;BME280;11831;55.918;37.746;2023-02-04T11:15:46;99309.75;;;5.03;0.00
23318;BME280;11831;55.918;37.746;2023-02-04T11:20:51;99321.91;;;5.80;0.00
23318;BME280;11831;55.918;37.746;2023-02-04T11:26:04;99329.69;;;5.34;0.00
23318;BME280;11831;55.918;37.746;2023-02-04T11:28:48;99333.88;;;5.15;0.00
23318;BME280;11831;55.918;37.746;2023-02-04T11:33:44;99331.00;;;4.82;0.00
23318;BME280;11831;55.918;37.746;2023-02-04T11:36:13;99332.56;;;4.97;0.00
23318;BME280;11831;55.918;37.746;2023-02-04T11:38:45;99336.91;;;4.77;0.00
23318;BME280;11831;55.918;37.746;2023-02-04T11:41:28;99332.13;;;4.94;0.00
23318;BME280;11831;55.918;37.746;2023-02-04T11:43:56;99338.00;;;4.61;0.00
23318;BME280;11831;55.918;37.746;2023-02-04T11:46:25;99336.38;;;4.60;0.00
23318;BME280;11831;55.918;37.746;2023-02-04T11:48:53;99343.34;;;4.96;0.00
23318;BME280;11831;55.918;37.746;2023-02-04T11:51:23;99345.56;;;5.20;0.00
23318;BME280;11831;55.918;37.746;2023-02-04T11:53:51;99345.72;;;5.19;0.00
23318;BME280;11831;55.918;37.746;2023-02-04T11:56:22;99348.28;;;4.50;0.00
23318;BME280;11831;55.918;37.746;2023-02-04T11:58:49;99353.91;;;4.61;0.00
23318;BME280;11831;55.918;37.746;2023-02-04T12:01:20;99364.31;;;4.91;0.00
23318;BME280;11831;55.918;37.746;2023-02-04T12:03:48;99363.56;;;5.38;0.00
23318;BME280;11831;55.918;37.746;2023-02-04T12:06:22;99361.56;;;5.06;0.00
23318;BME280;11831;55.918;37.746;2023-02-04T12:08:49;99364.41;;;4.55;0.00
23318;BME280;11831;55.918;37.746;2023-02-04T12:11:27;99366.19;;;5.32;0.00
23318;BME280;11831;55.918;37.746;2023-02-04T12:13:57;99363.13;;;4.93;0.00
23318;BME280;11831;55.918;37.746;2023-02-04T12:16:24;99371.81;;;5.15;0.00
23318;BME280;11831;55.918;37.746;2023-02-04T12:18:51;99365.25;;;4.83;0.00
23318;BME280;11831;55.918;37.746;2023-02-04T12:21:17;99384.78;;;4.76;0.00
23318;BME280;11831;55.918;37.746;2023-02-04T12:23:44;99374.59;;;4.30;0.00
23318;BME280;11831;55.918;37.746;2023-02-04T12:26:11;99377.78;;;3.68;0.00
23318;BME280;11831;55.918;37.746;2023-02-04T12:28:37;99389.31;;;4.18;0.00
23318;BME280;11831;55.918;37.746;2023-02-04T12:31:04;99387.50;;;4.18;0.00
23318;BME280;11831;55.918;37.746;2023-02-04T12:33:30;99384.22;;;4.87;0.00
23318;BME280;11831;55.918;37.746;2023-02-04T12:35:56;99396.03;;;4.84;0.00
23318;BME280;11831;55.918;37.746;2023-02-04T12:38:23;99400.06;;;5.36;0.00
23318;BME280;11831;55.918;37.746;2023-02-04T12:40:49;99391.59;;;5.19;0.00
23318;BME280;11831;55.918;37.746;2023-02-04T12:43:15;99397.56;;;5.21;0.00
23318;BME280;11831;55.918;37.746;2023-02-04T12:45:42;99401.97;;;4.86;0.00
23318;BME280;11831;55.918;37.746;2023-02-04T12:48:11;99406.41;;;4.79;0.00
23318;BME280;11831;55.918;37.746;2023-02-04T12:50:38;99406.47;;;4.43;0.00
23318;BME280;11831;55.918;37.746;2023-02-04T12:53:05;99408.22;;;4.79;0.00
23318;BME280;11831;55.918;37.746;2023-02-04T12:55:31;99412.16;;;4.61;0.00
23318;BME280;11831;55.918;37.746;2023-02-04T12:57:57;99424.00;;;5.15;0.00
23318;BME280;11831;55.918;37.746;2023-02-04T13:00:24;99420.94;;;5.18;0.00
23318;BME280;11831;55.918;37.746;2023-02-04T13:02:52;99422.53;;;4.84;0.00
23318;BME280;11831;55.918;37.746;2023-02-04T13:05:20;99425.12;;;4.99;0.00
23318;BME280;11831;55.918;37.746;2023-02-04T13:07:46;99432.38;;;4.48;0.00
23318;BME280;11831;55.918;37.746;2023-02-04T13:10:13;99439.00;;;4.80;0.00
23318;BME280;11831;55.918;37.746;2023-02-04T13:12:40;99431.72;;;4.88;0.00
23318;BME280;11831;55.918;37.746;2023-02-04T13:15:07;99434.12;;;4.83;0.00
23318;BME280;11831;55.918;37.746;2023-02-04T13:17:33;99436.75;;;4.34;0.00
23318;BME280;11831;55.918;37.746;2023-02-04T13:20:00;99442.59;;;4.93;0.00
23318;BME280;11831;55.918;37.746;2023-02-04T13:22:26;99444.78;;;5.11;0.00
23318;BME280;11831;55.918;37.746;2023-02-04T13:24:53;99442.22;;;5.24;0.00
23318;BME280;11831;55.918;37.746;2023-02-04T13:27:19;99442.84;;;4.98;0.00
23318;BME280;11831;55.918;37.746;2023-02-04T13:29:45;99453.94;;;5.37;0.00